createdAt,value
2023-04-23T00:10:46.048Z,100
2023-04-23T00:40:52.035Z,100
2023-04-23T01:31:03.835Z,100
2023-04-23T01:41:06.112Z,100
2023-04-23T01:51:07.980Z,100
2023-04-23T02:11:11.348Z,100
2023-04-23T02:21:13.394Z,100
2023-04-23T02:41:17.403Z,100
2023-04-23T02:51:19.831Z,100
2023-04-23T03:21:25.728Z,100
2023-04-23T03:31:28.137Z,100
2023-04-23T03:41:30.691Z,100
2023-04-23T04:01:34.842Z,100
2023-04-23T04:31:41.947Z,100
2023-04-23T04:51:45.990Z,100
2023-04-23T05:21:52.167Z,100
2023-04-23T05:31:54.406Z,100
2023-04-23T05:41:56.337Z,100
2023-04-23T05:51:58.936Z,100
2023-04-23T06:12:02.594Z,100
2023-04-23T06:22:04.955Z,100
2023-04-23T06:32:07.482Z,100
2023-04-23T06:52:11.622Z,100
2023-04-23T07:02:13.949Z,100
2023-04-23T07:12:16.589Z,100
2023-04-23T07:42:23.556Z,100
2023-04-23T07:52:26.043Z,100
2023-04-23T08:02:28.761Z,100
2023-04-23T08:12:31.169Z,100
2023-04-23T08:42:38.174Z,94
2023-04-23T08:52:40.234Z,95
2023-04-23T09:02:42.963Z,91
2023-04-23T09:12:44.931Z,90
2023-04-23T09:22:47.487Z,89
2023-04-23T09:32:49.267Z,88
2023-04-23T09:42:51.643Z,84
2023-04-23T09:52:54.011Z,83
2023-04-23T10:02:56.420Z,79
2023-04-23T10:12:58.432Z,76
2023-04-23T10:23:00.724Z,77
2023-04-23T10:33:02.951Z,79
2023-04-23T10:53:07.151Z,76
2023-04-23T11:03:09.359Z,75
2023-04-23T11:13:11.470Z,70
2023-04-23T11:23:13.854Z,69
2023-04-23T11:33:16.334Z,65
2023-04-23T12:53:33.651Z,76
2023-04-23T13:13:37.816Z,75
2023-04-23T13:33:42.370Z,66
2023-04-23T13:43:44.967Z,65
2023-04-23T13:53:46.686Z,65
2023-04-23T14:03:48.738Z,64
2023-04-23T14:33:54.957Z,51
2023-04-23T15:04:01.420Z,47
2023-04-23T15:24:05.287Z,48
2023-04-23T15:34:07.623Z,49
2023-04-23T15:44:09.577Z,49
2023-04-23T15:54:11.749Z,51
2023-04-23T16:04:14.469Z,58
2023-04-23T16:14:16.212Z,61
2023-04-23T16:24:18.369Z,57
2023-04-23T16:34:21.028Z,65
2023-04-23T16:44:23.685Z,67
2023-04-23T17:04:27.999Z,69
2023-04-23T17:14:30.642Z,77
2023-04-23T17:24:32.185Z,96
2023-04-23T17:44:36.534Z,100
2023-04-23T17:54:38.593Z,100
2023-04-23T18:04:41.264Z,100
2023-04-23T18:14:43.394Z,100
2023-04-23T18:24:45.665Z,100
2023-04-23T18:34:47.479Z,100
2023-04-23T18:44:50.046Z,100
2023-04-23T18:54:52.213Z,100
2023-04-23T19:04:54.261Z,100
2023-04-23T19:14:55.891Z,100
2023-04-23T19:24:57.810Z,100
2023-04-23T19:34:59.822Z,100
2023-04-23T19:45:02.125Z,100
2023-04-23T19:55:04.103Z,100
2023-04-23T20:05:06.456Z,100
2023-04-23T20:15:08.645Z,100
2023-04-23T20:35:12.708Z,100
2023-04-23T20:38:07.236Z,100
2023-04-23T20:45:24.308Z,100
2023-04-23T20:55:26.929Z,100
2023-04-23T21:05:28.753Z,100
2023-04-23T21:15:30.805Z,100
2023-04-23T21:25:32.761Z,100
2023-04-23T21:35:34.946Z,100
2023-04-23T21:45:37.098Z,100
2023-04-23T22:05:40.995Z,100
2023-04-23T22:15:42.853Z,100
2023-04-23T22:25:44.668Z,100
2023-04-23T22:35:47.078Z,100
2023-04-23T22:45:49.063Z,100
2023-04-23T22:55:50.935Z,100
2023-04-23T23:05:52.940Z,100
2023-04-23T23:15:55.070Z,100
2023-04-23T23:25:58.828Z,100
2023-04-23T23:35:59.027Z,100
2023-04-23T23:46:01.116Z,100
2023-04-23T23:56:02.861Z,100
